createdAt,value
2017-01-22T00:00:11.107Z,1022.06
2017-01-22T00:01:11.078Z,1022.05
2017-01-22T00:02:11.050Z,1022.08
2017-01-22T00:03:11.019Z,1022.09
2017-01-22T00:04:10.992Z,1022.06
2017-01-22T00:05:10.969Z,1022.1
2017-01-22T00:06:10.936Z,1022.1
2017-01-22T00:07:10.906Z,1022.13
2017-01-22T00:08:10.877Z,1022.12
2017-01-22T00:09:10.848Z,1022.1
2017-01-22T00:10:10.821Z,1022.11
2017-01-22T00:11:10.791Z,1022.08
2017-01-22T00:12:10.762Z,1022.1
2017-01-22T00:13:10.736Z,1022.11
2017-01-22T00:14:10.705Z,1022.09
2017-01-22T00:15:10.676Z,1022.06
2017-01-22T00:16:10.647Z,1022.05
2017-01-22T00:17:10.620Z,1022.05
2017-01-22T00:18:10.589Z,1022.05
2017-01-22T00:19:10.570Z,1022.08
2017-01-22T00:20:10.533Z,1022.06
2017-01-22T00:21:10.506Z,1022.09
2017-01-22T00:22:10.474Z,1022.09
2017-01-22T00:23:10.445Z,1022.1
2017-01-22T00:24:10.418Z,1022.07
2017-01-22T00:25:10.386Z,1022.04
2017-01-22T00:26:10.361Z,1022.09
2017-01-22T00:27:10.330Z,1022.03
2017-01-22T00:28:10.305Z,1022.1
2017-01-22T00:29:10.272Z,1022.05
2017-01-22T00:30:10.242Z,1022.11
2017-01-22T00:31:10.214Z,1022.09
2017-01-22T00:32:10.188Z,1022.17
2017-01-22T00:33:10.157Z,1022.12
2017-01-22T00:34:10.127Z,1022.13
2017-01-22T00:35:10.101Z,1022.15
2017-01-22T00:36:10.069Z,1022.13
2017-01-22T00:37:10.042Z,1022.12
2017-01-22T00:38:10.038Z,1022.11
2017-01-22T00:39:09.984Z,1022.07
2017-01-22T00:40:09.958Z,1022.05
2017-01-22T00:41:09.928Z,1022.09
2017-01-22T00:42:09.901Z,1022.05
2017-01-22T00:43:09.868Z,1022.07
2017-01-22T00:44:09.838Z,1022.08
2017-01-22T00:45:09.812Z,1022.03
2017-01-22T00:46:09.782Z,1022.05
2017-01-22T00:47:09.756Z,1022.01
2017-01-22T00:48:09.722Z,1021.99
2017-01-22T00:49:09.692Z,1022.04
2017-01-22T00:50:09.664Z,1022
2017-01-22T00:51:09.635Z,1022.01
2017-01-22T00:52:09.605Z,1022.01
2017-01-22T00:53:09.579Z,1022.03
2017-01-22T00:54:09.550Z,1022.05
2017-01-22T00:55:09.520Z,1022.05
2017-01-22T00:56:09.495Z,1022.11
2017-01-22T00:57:09.462Z,1022.04
2017-01-22T00:58:09.433Z,1022.1
2017-01-22T00:59:09.406Z,1022.08
2017-01-22T01:00:09.378Z,1022.05
2017-01-22T01:01:09.350Z,1022.03
2017-01-22T01:02:09.314Z,1022.06
2017-01-22T01:03:09.287Z,1022.02
2017-01-22T01:04:09.258Z,1022.06
2017-01-22T01:05:09.235Z,1022.07
2017-01-22T01:06:09.201Z,1022.06
2017-01-22T01:07:09.175Z,1022.1
2017-01-22T01:08:09.144Z,1022.07
2017-01-22T01:09:09.114Z,1022.06
2017-01-22T01:10:09.086Z,1022.08
2017-01-22T01:11:09.058Z,1022.04
2017-01-22T01:12:09.030Z,1022
2017-01-22T01:13:09.048Z,1022.07
2017-01-22T01:14:08.970Z,1022
2017-01-22T01:15:08.945Z,1022.01
2017-01-22T01:16:08.913Z,1022.02
2017-01-22T01:17:08.880Z,1022.03
2017-01-22T01:18:08.853Z,1022.06
2017-01-22T01:19:08.822Z,1022.07
2017-01-22T01:20:08.794Z,1022.07
2017-01-22T01:21:08.765Z,1022.05
2017-01-22T01:22:08.736Z,1022.09
2017-01-22T01:23:08.711Z,1022.08
2017-01-22T01:24:08.678Z,1022.05
2017-01-22T01:25:08.648Z,1022.01
2017-01-22T01:26:08.620Z,1022
2017-01-22T01:27:08.590Z,1022
2017-01-22T01:28:08.562Z,1021.99
2017-01-22T01:29:08.532Z,1021.98
2017-01-22T01:30:08.504Z,1021.97
2017-01-22T01:31:08.473Z,1021.97
2017-01-22T01:32:08.442Z,1021.96
2017-01-22T01:33:08.419Z,1021.98
2017-01-22T01:34:08.388Z,1021.98
2017-01-22T01:35:08.356Z,1021.93
2017-01-22T01:36:08.327Z,1021.94
2017-01-22T01:37:08.312Z,1021.94
2017-01-22T01:38:08.269Z,1021.93
2017-01-22T01:39:08.252Z,1021.95
2017-01-22T01:40:08.210Z,1021.9
2017-01-22T01:41:08.180Z,1021.93
2017-01-22T01:42:08.154Z,1021.95
2017-01-22T01:43:08.128Z,1021.91
2017-01-22T01:44:08.098Z,1021.91
2017-01-22T01:45:08.064Z,1021.95
2017-01-22T01:46:08.038Z,1021.93
2017-01-22T01:47:08.006Z,1021.94
2017-01-22T01:48:07.984Z,1021.98
2017-01-22T01:49:07.947Z,1021.96
2017-01-22T01:50:07.918Z,1021.97
2017-01-22T01:51:07.891Z,1021.95
2017-01-22T01:52:07.860Z,1021.91
2017-01-22T01:53:07.832Z,1021.9
2017-01-22T01:54:07.807Z,1021.89
2017-01-22T01:55:07.775Z,1021.91
2017-01-22T01:56:07.745Z,1021.86
2017-01-22T01:57:07.712Z,1021.9
2017-01-22T01:58:07.686Z,1021.88
2017-01-22T01:59:07.656Z,1021.91
2017-01-22T02:00:07.628Z,1021.84
2017-01-22T02:01:07.595Z,1021.87
2017-01-22T02:02:07.565Z,1021.84
2017-01-22T02:03:07.539Z,1021.84
2017-01-22T02:04:07.509Z,1021.83
2017-01-22T02:05:07.478Z,1021.87
2017-01-22T02:06:07.449Z,1021.87
2017-01-22T02:07:07.423Z,1021.83
2017-01-22T02:08:07.390Z,1021.83
2017-01-22T02:09:07.361Z,1021.82
2017-01-22T02:10:07.332Z,1021.77
2017-01-22T02:11:07.303Z,1021.78
2017-01-22T02:12:07.273Z,1021.76
2017-01-22T02:13:07.245Z,1021.75
2017-01-22T02:14:07.217Z,1021.77
2017-01-22T02:15:07.186Z,1021.76
2017-01-22T02:16:07.260Z,1021.73
2017-01-22T02:17:07.123Z,1021.73
2017-01-22T02:18:07.099Z,1021.73
2017-01-22T02:19:07.064Z,1021.71
2017-01-22T02:20:07.038Z,1021.67
2017-01-22T02:21:07.010Z,1021.69
2017-01-22T02:22:06.979Z,1021.67
2017-01-22T02:23:06.950Z,1021.65
2017-01-22T02:24:07.225Z,1021.67
2017-01-22T02:25:06.892Z,1021.68
2017-01-22T02:26:06.866Z,1021.63
2017-01-22T02:27:06.833Z,1021.65
2017-01-22T02:28:06.803Z,1021.64
2017-01-22T02:29:06.774Z,1021.61
2017-01-22T02:30:06.745Z,1021.61
2017-01-22T02:31:06.713Z,1021.63
2017-01-22T02:32:06.714Z,1021.61
2017-01-22T02:33:06.656Z,1021.61
2017-01-22T02:34:06.629Z,1021.64
2017-01-22T02:35:06.597Z,1021.61
2017-01-22T02:36:06.570Z,1021.64
2017-01-22T02:37:06.536Z,1021.62
2017-01-22T02:38:06.510Z,1021.61
2017-01-22T02:39:06.480Z,1021.6
2017-01-22T02:40:06.449Z,1021.63
2017-01-22T02:41:06.419Z,1021.62
2017-01-22T02:42:06.396Z,1021.62
2017-01-22T02:43:06.365Z,1021.59
2017-01-22T02:44:06.337Z,1021.62
2017-01-22T02:45:06.304Z,1021.61
2017-01-22T02:46:06.277Z,1021.63
2017-01-22T02:47:06.245Z,1021.64
2017-01-22T02:48:06.215Z,1021.65
2017-01-22T02:49:06.183Z,1021.62
2017-01-22T02:50:06.154Z,1021.61
2017-01-22T02:51:06.125Z,1021.62
2017-01-22T02:52:06.097Z,1021.6
2017-01-22T02:53:06.068Z,1021.58
2017-01-22T02:54:06.041Z,1021.63
2017-01-22T02:55:06.005Z,1021.54
2017-01-22T02:56:05.976Z,1021.58
2017-01-22T02:57:05.946Z,1021.57
2017-01-22T02:58:05.918Z,1021.56
2017-01-22T02:59:05.888Z,1021.58
2017-01-22T03:00:05.862Z,1021.61
2017-01-22T03:01:05.830Z,1021.56
2017-01-22T03:02:05.799Z,1021.59
2017-01-22T03:03:05.772Z,1021.64
2017-01-22T03:04:05.742Z,1021.62
2017-01-22T03:05:05.715Z,1021.54
2017-01-22T03:06:05.682Z,1021.55
2017-01-22T03:07:05.653Z,1021.59
2017-01-22T03:08:05.623Z,1021.58
2017-01-22T03:09:05.594Z,1021.58
2017-01-22T03:10:05.568Z,1021.59
2017-01-22T03:11:05.535Z,1021.54
2017-01-22T03:12:05.505Z,1021.5
2017-01-22T03:13:05.474Z,1021.5
2017-01-22T03:14:05.461Z,1021.5
2017-01-22T03:15:05.415Z,1021.5
2017-01-22T03:16:05.386Z,1021.47
2017-01-22T03:17:05.353Z,1021.48
2017-01-22T03:18:05.328Z,1021.53
2017-01-22T03:19:05.299Z,1021.48
2017-01-22T03:20:05.268Z,1021.53
2017-01-22T03:21:05.238Z,1021.53
2017-01-22T03:22:05.213Z,1021.53
2017-01-22T03:23:05.180Z,1021.58
2017-01-22T03:24:05.149Z,1021.58
2017-01-22T03:25:05.119Z,1021.52
2017-01-22T03:26:05.090Z,1021.49
2017-01-22T03:27:05.061Z,1021.53
2017-01-22T03:28:05.029Z,1021.53
2017-01-22T03:29:05.001Z,1021.5
2017-01-22T03:30:04.970Z,1021.49
2017-01-22T03:31:04.941Z,1021.48
2017-01-22T03:32:04.911Z,1021.51
2017-01-22T03:33:04.882Z,1021.51
2017-01-22T03:34:04.855Z,1021.49
2017-01-22T03:35:04.822Z,1021.52
2017-01-22T03:36:04.796Z,1021.52
2017-01-22T03:37:04.762Z,1021.58
2017-01-22T03:38:04.734Z,1021.5
2017-01-22T03:39:04.702Z,1021.51
2017-01-22T03:40:04.699Z,1021.52
2017-01-22T03:41:04.644Z,1021.55
2017-01-22T03:42:04.615Z,1021.51
2017-01-22T03:43:04.583Z,1021.56
2017-01-22T03:44:04.552Z,1021.54
2017-01-22T03:45:04.525Z,1021.51
2017-01-22T03:46:04.494Z,1021.5
2017-01-22T03:47:04.465Z,1021.53
2017-01-22T03:48:04.435Z,1021.51
2017-01-22T03:49:04.407Z,1021.53
2017-01-22T03:50:04.376Z,1021.52
2017-01-22T03:51:04.347Z,1021.54
2017-01-22T03:52:04.317Z,1021.5
2017-01-22T03:53:04.287Z,1021.53
2017-01-22T03:54:04.256Z,1021.49
2017-01-22T03:55:04.225Z,1021.5
2017-01-22T03:56:04.246Z,1021.49
2017-01-22T03:57:04.167Z,1021.52
2017-01-22T03:58:04.136Z,1021.5
2017-01-22T03:59:04.108Z,1021.5
2017-01-22T04:00:04.077Z,1021.47
2017-01-22T04:01:04.046Z,1021.45
2017-01-22T04:02:04.017Z,1021.48
2017-01-22T04:03:03.987Z,1021.43
2017-01-22T04:04:03.959Z,1021.46
2017-01-22T04:05:03.927Z,1021.45
2017-01-22T04:06:03.898Z,1021.45
2017-01-22T04:07:03.868Z,1021.44
2017-01-22T04:08:03.839Z,1021.38
2017-01-22T04:09:03.808Z,1021.36
2017-01-22T04:10:03.777Z,1021.38
2017-01-22T04:11:03.748Z,1021.42
2017-01-22T04:12:03.719Z,1021.38
2017-01-22T04:13:03.688Z,1021.44
2017-01-22T04:14:03.658Z,1021.45
2017-01-22T04:15:03.629Z,1021.42
2017-01-22T04:16:03.601Z,1021.41
2017-01-22T04:17:03.569Z,1021.45
2017-01-22T04:18:03.540Z,1021.4
2017-01-22T04:19:03.508Z,1021.39
2017-01-22T04:20:03.481Z,1021.39
2017-01-22T04:21:03.450Z,1021.43
2017-01-22T04:22:03.419Z,1021.39
2017-01-22T04:23:03.390Z,1021.38
2017-01-22T04:24:03.369Z,1021.35
2017-01-22T04:25:03.328Z,1021.39
2017-01-22T04:26:03.298Z,1021.33
2017-01-22T04:27:03.291Z,1021.36
2017-01-22T04:28:03.239Z,1021.35
2017-01-22T04:29:03.211Z,1021.33
2017-01-22T04:30:03.179Z,1021.33
2017-01-22T04:31:03.153Z,1021.38
2017-01-22T04:32:03.119Z,1021.35
2017-01-22T04:33:03.092Z,1021.36
2017-01-22T04:34:03.108Z,1021.37
2017-01-22T04:35:03.027Z,1021.35
2017-01-22T04:36:02.999Z,1021.37
2017-01-22T04:37:02.967Z,1021.38
2017-01-22T04:38:02.937Z,1021.36
2017-01-22T04:39:02.910Z,1021.38
2017-01-22T04:40:02.884Z,1021.4
2017-01-22T04:41:02.846Z,1021.42
2017-01-22T04:42:02.867Z,1021.41
2017-01-22T04:43:02.788Z,1021.39
2017-01-22T04:44:02.758Z,1021.38
2017-01-22T04:45:02.727Z,1021.4
2017-01-22T04:46:02.696Z,1021.38
2017-01-22T04:47:02.667Z,1021.34
2017-01-22T04:48:02.635Z,1021.32
2017-01-22T04:49:02.606Z,1021.36
2017-01-22T04:50:02.575Z,1021.34
2017-01-22T04:51:02.546Z,1021.28
2017-01-22T04:52:02.515Z,1021.28
2017-01-22T04:53:02.485Z,1021.29
2017-01-22T04:54:02.455Z,1021.29
2017-01-22T04:55:02.425Z,1021.25
2017-01-22T04:56:02.394Z,1021.27
2017-01-22T04:57:02.368Z,1021.25
2017-01-22T04:58:02.335Z,1021.25
2017-01-22T04:59:02.303Z,1021.22
2017-01-22T05:00:02.274Z,1021.2
2017-01-22T05:01:02.244Z,1021.2
2017-01-22T05:02:02.214Z,1021.22
2017-01-22T05:03:02.183Z,1021.21
2017-01-22T05:04:02.153Z,1021.19
2017-01-22T05:05:02.123Z,1021.17
2017-01-22T05:06:02.092Z,1021.21
2017-01-22T05:07:02.061Z,1021.14
2017-01-22T05:08:02.031Z,1021.16
2017-01-22T05:09:02.001Z,1021.15
2017-01-22T05:10:01.971Z,1021.17
2017-01-22T05:11:01.940Z,1021.12
2017-01-22T05:12:01.908Z,1021.16
2017-01-22T05:13:01.880Z,1021.23
2017-01-22T05:14:01.849Z,1021.16
2017-01-22T05:15:01.821Z,1021.18
2017-01-22T05:16:01.787Z,1021.17
2017-01-22T05:17:01.762Z,1021.2
2017-01-22T05:18:01.728Z,1021.23
2017-01-22T05:19:01.701Z,1021.22
2017-01-22T05:20:01.666Z,1021.17
2017-01-22T05:21:01.635Z,1021.2
2017-01-22T05:22:01.609Z,1021.2
2017-01-22T05:23:01.579Z,1021.2
2017-01-22T05:24:01.544Z,1021.16
2017-01-22T05:25:01.514Z,1021.18
2017-01-22T05:26:01.484Z,1021.15
2017-01-22T05:27:01.454Z,1021.16
2017-01-22T05:28:01.423Z,1021.2
2017-01-22T05:29:01.393Z,1021.19
2017-01-22T05:30:01.362Z,1021.17
2017-01-22T05:31:01.332Z,1021.15
2017-01-22T05:32:01.302Z,1021.19
2017-01-22T05:33:01.273Z,1021.16
2017-01-22T05:34:01.292Z,1021.19
2017-01-22T05:35:01.213Z,1021.18
2017-01-22T05:36:01.182Z,1021.21
2017-01-22T05:37:01.155Z,1021.16
2017-01-22T05:38:01.122Z,1021.13
2017-01-22T05:39:01.094Z,1021.16
2017-01-22T05:40:01.058Z,1021.16
2017-01-22T05:41:01.030Z,1021.15
2017-01-22T05:42:01.003Z,1021.14
2017-01-22T05:43:00.969Z,1021.17
2017-01-22T05:44:00.938Z,1021.13
2017-01-22T05:45:00.912Z,1021.13
2017-01-22T05:46:00.877Z,1021.21
2017-01-22T05:47:00.855Z,1021.12
2017-01-22T05:48:00.816Z,1021.14
2017-01-22T05:49:00.787Z,1021.12
2017-01-22T05:50:00.762Z,1021.11
2017-01-22T05:51:00.727Z,1021.17
2017-01-22T05:52:00.701Z,1021.17
2017-01-22T05:53:00.666Z,1021.18
2017-01-22T05:54:00.641Z,1021.21
2017-01-22T05:55:00.606Z,1021.23
2017-01-22T05:56:00.577Z,1021.26
2017-01-22T05:57:00.545Z,1021.25
2017-01-22T05:58:00.513Z,1021.22
2017-01-22T05:59:00.488Z,1021.22
2017-01-22T06:00:00.455Z,1021.22
2017-01-22T06:01:00.423Z,1021.15
2017-01-22T06:02:00.393Z,1021.14
2017-01-22T06:03:00.364Z,1021.18
2017-01-22T06:04:00.386Z,1021.16
2017-01-22T06:05:00.303Z,1021.17
2017-01-22T06:06:00.283Z,1021.19
2017-01-22T06:07:00.242Z,1021.19
2017-01-22T06:08:00.212Z,1021.13
2017-01-22T06:09:00.182Z,1021.13
2017-01-22T06:10:00.151Z,1021.16
2017-01-22T06:11:00.122Z,1021.17
2017-01-22T06:12:00.091Z,1021.15
2017-01-22T06:13:00.059Z,1021.15
2017-01-22T06:14:00.034Z,1021.14
2017-01-22T06:14:59.998Z,1021.21
2017-01-22T06:15:59.973Z,1021.16
2017-01-22T06:16:59.938Z,1021.17
2017-01-22T06:17:59.909Z,1021.16
2017-01-22T06:18:59.878Z,1021.15
2017-01-22T06:19:59.847Z,1021.14
2017-01-22T06:20:59.828Z,1021.12
2017-01-22T06:21:59.788Z,1021.15
2017-01-22T06:22:59.757Z,1021.16
2017-01-22T06:23:59.726Z,1021.18
2017-01-22T06:24:59.719Z,1021.16
2017-01-22T06:25:59.668Z,1021.19
2017-01-22T06:26:59.636Z,1021.18
2017-01-22T06:27:59.605Z,1021.18
2017-01-22T06:28:59.576Z,1021.18
2017-01-22T06:29:59.545Z,1021.19
2017-01-22T06:30:59.516Z,1021.23
2017-01-22T06:31:59.485Z,1021.25
2017-01-22T06:32:59.455Z,1021.25
2017-01-22T06:33:59.424Z,1021.28
2017-01-22T06:34:59.393Z,1021.24
2017-01-22T06:35:59.364Z,1021.28
2017-01-22T06:36:59.334Z,1021.25
2017-01-22T06:37:59.303Z,1021.28
2017-01-22T06:38:59.272Z,1021.24
2017-01-22T06:39:59.244Z,1021.26
2017-01-22T06:40:59.214Z,1021.24
2017-01-22T06:41:59.182Z,1021.24
2017-01-22T06:42:59.151Z,1021.21
2017-01-22T06:43:59.126Z,1021.25
2017-01-22T06:44:59.091Z,1021.27
2017-01-22T06:45:59.062Z,1021.28
2017-01-22T06:46:59.030Z,1021.26
2017-01-22T06:47:59.001Z,1021.27
2017-01-22T06:48:58.970Z,1021.27
2017-01-22T06:49:58.942Z,1021.24
2017-01-22T06:50:58.909Z,1021.28
2017-01-22T06:51:58.880Z,1021.26
2017-01-22T06:52:58.852Z,1021.32
2017-01-22T06:53:58.819Z,1021.34
2017-01-22T06:54:58.790Z,1021.32
2017-01-22T06:55:58.759Z,1021.39
2017-01-22T06:56:58.728Z,1021.34
2017-01-22T06:57:58.698Z,1021.31
2017-01-22T06:58:58.670Z,1021.35
2017-01-22T06:59:58.638Z,1021.31
2017-01-22T07:00:58.606Z,1021.35
2017-01-22T07:01:58.576Z,1021.32
2017-01-22T07:02:58.547Z,1021.34
2017-01-22T07:03:58.515Z,1021.39
2017-01-22T07:04:58.485Z,1021.36
2017-01-22T07:05:58.456Z,1021.39
2017-01-22T07:06:58.426Z,1021.38
2017-01-22T07:07:58.393Z,1021.37
2017-01-22T07:08:58.365Z,1021.39
2017-01-22T07:09:58.334Z,1021.39
2017-01-22T07:10:58.301Z,1021.39
2017-01-22T07:11:58.274Z,1021.35
2017-01-22T07:12:58.245Z,1021.37
2017-01-22T07:13:58.210Z,1021.39
2017-01-22T07:14:58.185Z,1021.34
2017-01-22T07:15:58.151Z,1021.36
2017-01-22T07:16:58.122Z,1021.31
2017-01-22T07:17:58.089Z,1021.34
2017-01-22T07:18:58.063Z,1021.31
2017-01-22T07:19:58.053Z,1021.27
2017-01-22T07:20:57.999Z,1021.31
2017-01-22T07:21:57.967Z,1021.34
2017-01-22T07:22:57.937Z,1021.33
2017-01-22T07:23:57.910Z,1021.33
2017-01-22T07:24:57.876Z,1021.28
2017-01-22T07:25:57.859Z,1021.29
2017-01-22T07:26:57.815Z,1021.26
2017-01-22T07:27:57.787Z,1021.29
2017-01-22T07:28:57.755Z,1021.3
2017-01-22T07:29:57.724Z,1021.31
2017-01-22T07:30:57.695Z,1021.32
2017-01-22T07:31:57.668Z,1021.29
2017-01-22T07:32:57.633Z,1021.31
2017-01-22T07:33:57.603Z,1021.27
2017-01-22T07:34:57.574Z,1021.27
2017-01-22T07:35:57.540Z,1021.27
2017-01-22T07:36:57.512Z,1021.26
2017-01-22T07:37:57.482Z,1021.28
2017-01-22T07:38:57.451Z,1021.26
2017-01-22T07:39:57.420Z,1021.25
2017-01-22T07:40:57.390Z,1021.26
2017-01-22T07:41:57.359Z,1021.25
2017-01-22T07:42:57.330Z,1021.26
2017-01-22T07:43:57.298Z,1021.34
2017-01-22T07:44:57.269Z,1021.29
2017-01-22T07:45:57.290Z,1021.31
2017-01-22T07:46:57.207Z,1021.34
2017-01-22T07:47:57.179Z,1021.35
2017-01-22T07:48:57.149Z,1021.3
2017-01-22T07:49:57.119Z,1021.33
2017-01-22T07:50:57.087Z,1021.34
2017-01-22T07:51:57.058Z,1021.38
2017-01-22T07:52:57.039Z,1021.43
2017-01-22T07:53:57.000Z,1021.36
2017-01-22T07:54:56.970Z,1021.42
2017-01-22T07:55:56.941Z,1021.4
2017-01-22T07:56:56.913Z,1021.43
2017-01-22T07:57:56.881Z,1021.42
2017-01-22T07:58:56.851Z,1021.44
2017-01-22T07:59:56.825Z,1021.44
2017-01-22T08:00:56.794Z,1021.4
2017-01-22T08:01:56.766Z,1021.42
2017-01-22T08:02:56.735Z,1021.46
2017-01-22T08:03:56.734Z,1021.46
2017-01-22T08:04:56.677Z,1021.42
2017-01-22T08:05:56.648Z,1021.43
2017-01-22T08:06:56.620Z,1021.47
2017-01-22T08:07:56.591Z,1021.42
2017-01-22T08:08:56.563Z,1021.44
2017-01-22T08:09:56.539Z,1021.4
2017-01-22T08:10:56.507Z,1021.43
2017-01-22T08:11:56.476Z,1021.36
2017-01-22T08:12:56.449Z,1021.35
2017-01-22T08:13:56.423Z,1021.37
2017-01-22T08:14:56.392Z,1021.38
2017-01-22T08:15:56.362Z,1021.4
2017-01-22T08:16:56.337Z,1021.36
2017-01-22T08:17:56.317Z,1021.38
2017-01-22T08:18:56.294Z,1021.4
2017-01-22T08:19:56.261Z,1021.35
2017-01-22T08:20:56.232Z,1021.4
2017-01-22T08:21:56.206Z,1021.37
2017-01-22T08:22:56.183Z,1021.42
2017-01-22T08:23:56.153Z,1021.45
2017-01-22T08:24:56.132Z,1021.39
2017-01-22T08:25:56.107Z,1021.4
2017-01-22T08:26:56.085Z,1021.38
2017-01-22T08:27:56.058Z,1021.34
2017-01-22T08:28:56.030Z,1021.4
2017-01-22T08:29:56.007Z,1021.38
2017-01-22T08:30:55.986Z,1021.39
2017-01-22T08:31:55.958Z,1021.38
2017-01-22T08:32:55.932Z,1021.41
2017-01-22T08:33:55.911Z,1021.39
2017-01-22T08:34:55.885Z,1021.4
2017-01-22T08:35:55.863Z,1021.38
2017-01-22T08:36:55.844Z,1021.42
2017-01-22T08:37:55.824Z,1021.45
2017-01-22T08:38:55.794Z,1021.39
2017-01-22T08:39:55.776Z,1021.41
2017-01-22T08:40:55.746Z,1021.39
2017-01-22T08:41:55.723Z,1021.44
2017-01-22T08:42:55.701Z,1021.42
2017-01-22T08:43:55.678Z,1021.44
2017-01-22T08:44:55.657Z,1021.43
2017-01-22T08:45:55.632Z,1021.49
2017-01-22T08:46:55.659Z,1021.41
2017-01-22T08:47:55.599Z,1021.43
2017-01-22T08:48:55.566Z,1021.45
2017-01-22T08:49:55.547Z,1021.47
2017-01-22T08:50:55.521Z,1021.5
2017-01-22T08:51:55.501Z,1021.48
2017-01-22T08:52:55.484Z,1021.46
2017-01-22T08:53:55.459Z,1021.5
2017-01-22T08:54:55.433Z,1021.5
2017-01-22T08:55:55.412Z,1021.53
2017-01-22T08:56:55.391Z,1021.55
2017-01-22T08:57:55.369Z,1021.57
2017-01-22T08:58:55.348Z,1021.6
2017-01-22T08:59:55.330Z,1021.54
2017-01-22T09:00:55.307Z,1021.57
2017-01-22T09:01:55.285Z,1021.61
2017-01-22T09:02:55.262Z,1021.57
2017-01-22T09:03:55.243Z,1021.58
2017-01-22T09:04:55.222Z,1021.54
2017-01-22T09:05:55.200Z,1021.54
2017-01-22T09:06:55.179Z,1021.52
2017-01-22T09:07:55.159Z,1021.52
2017-01-22T09:08:55.136Z,1021.5
2017-01-22T09:09:55.117Z,1021.55
2017-01-22T09:10:55.092Z,1021.57
2017-01-22T09:11:55.070Z,1021.63
2017-01-22T09:12:55.051Z,1021.58
2017-01-22T09:13:55.027Z,1021.63
2017-01-22T09:14:55.012Z,1021.63
2017-01-22T09:15:54.983Z,1021.61
2017-01-22T09:16:54.960Z,1021.61
2017-01-22T09:17:54.937Z,1021.6
2017-01-22T09:18:54.913Z,1021.62
2017-01-22T09:19:54.889Z,1021.58
2017-01-22T09:20:54.867Z,1021.61
2017-01-22T09:21:54.843Z,1021.59
2017-01-22T09:22:54.822Z,1021.6
2017-01-22T09:23:54.803Z,1021.56
2017-01-22T09:24:54.774Z,1021.53
2017-01-22T09:25:54.748Z,1021.54
2017-01-22T09:26:54.729Z,1021.54
2017-01-22T09:27:54.701Z,1021.53
2017-01-22T09:28:54.678Z,1021.56
2017-01-22T09:29:54.649Z,1021.54
2017-01-22T09:30:54.625Z,1021.53
2017-01-22T09:31:54.602Z,1021.53
2017-01-22T09:32:54.576Z,1021.54
2017-01-22T09:33:54.599Z,1021.53
2017-01-22T09:34:54.825Z,1021.54
2017-01-22T09:35:54.504Z,1021.53
2017-01-22T09:36:54.544Z,1021.49
2017-01-22T09:37:54.502Z,1021.49
2017-01-22T09:38:54.423Z,1021.53
2017-01-22T09:39:54.399Z,1021.51
2017-01-22T09:40:54.371Z,1021.52
2017-01-22T09:41:54.350Z,1021.57
2017-01-22T09:42:54.320Z,1021.53
2017-01-22T09:43:54.292Z,1021.51
2017-01-22T09:44:54.270Z,1021.52
2017-01-22T09:45:54.239Z,1021.49
2017-01-22T09:46:54.220Z,1021.46
2017-01-22T09:47:54.188Z,1021.44
2017-01-22T09:48:54.167Z,1021.44
2017-01-22T09:49:54.136Z,1021.42
2017-01-22T09:50:54.112Z,1021.39
2017-01-22T09:51:54.084Z,1021.44
2017-01-22T09:52:54.059Z,1021.41
2017-01-22T09:53:54.034Z,1021.43
2017-01-22T09:54:54.010Z,1021.44
2017-01-22T09:55:53.977Z,1021.46
2017-01-22T09:56:53.952Z,1021.4
2017-01-22T09:57:53.926Z,1021.42
2017-01-22T09:58:53.899Z,1021.47
2017-01-22T09:59:53.874Z,1021.42
2017-01-22T10:00:53.896Z,1021.41
2017-01-22T10:01:53.825Z,1021.41
2017-01-22T10:02:53.795Z,1021.41
2017-01-22T10:03:53.768Z,1021.41
2017-01-22T10:04:53.741Z,1021.37
2017-01-22T10:05:53.718Z,1021.41
2017-01-22T10:06:53.694Z,1021.35
2017-01-22T10:07:53.663Z,1021.38
2017-01-22T10:08:53.635Z,1021.4
2017-01-22T10:09:53.607Z,1021.32
2017-01-22T10:10:53.583Z,1021.42
2017-01-22T10:11:53.556Z,1021.39
2017-01-22T10:12:53.529Z,1021.36
2017-01-22T10:13:53.502Z,1021.31
2017-01-22T10:14:53.473Z,1021.34
2017-01-22T10:15:53.446Z,1021.33
2017-01-22T10:16:53.419Z,1021.33
2017-01-22T10:17:53.393Z,1021.36
2017-01-22T10:18:53.372Z,1021.35
2017-01-22T10:19:53.341Z,1021.33
2017-01-22T10:20:53.311Z,1021.35
2017-01-22T10:21:53.284Z,1021.27
2017-01-22T10:22:53.260Z,1021.32
2017-01-22T10:23:53.235Z,1021.3
2017-01-22T10:24:53.206Z,1021.31
2017-01-22T10:25:53.183Z,1021.3
2017-01-22T10:26:53.154Z,1021.29
2017-01-22T10:27:53.125Z,1021.3
2017-01-22T10:28:53.101Z,1021.3
2017-01-22T10:29:53.073Z,1021.27
2017-01-22T10:30:53.046Z,1021.31
2017-01-22T10:31:53.025Z,1021.28
2017-01-22T10:32:53.022Z,1021.23
2017-01-22T10:33:53.063Z,1021.24
2017-01-22T10:34:52.937Z,1021.28
2017-01-22T10:35:52.920Z,1021.24
2017-01-22T10:36:52.886Z,1021.23
2017-01-22T10:37:52.860Z,1021.22
2017-01-22T10:38:52.830Z,1021.24
2017-01-22T10:39:52.805Z,1021.13
2017-01-22T10:40:52.780Z,1021.14
2017-01-22T10:41:52.752Z,1021.11
2017-01-22T10:42:52.726Z,1021.07
2017-01-22T10:43:52.698Z,1021.06
2017-01-22T10:44:52.677Z,1021.03
2017-01-22T10:45:52.645Z,1021.03
2017-01-22T10:46:52.618Z,1021.06
2017-01-22T10:47:52.621Z,1021.02
2017-01-22T10:48:52.567Z,1021.07
2017-01-22T10:49:52.541Z,1021.06
2017-01-22T10:50:52.517Z,1021.05
2017-01-22T10:51:52.485Z,1021.06
2017-01-22T10:52:52.465Z,1021
2017-01-22T10:53:52.433Z,1021.02
2017-01-22T10:54:52.408Z,1020.99
2017-01-22T10:55:52.378Z,1021
2017-01-22T10:56:52.351Z,1021.02
2017-01-22T10:57:52.326Z,1021
2017-01-22T10:58:52.300Z,1021.01
2017-01-22T10:59:52.274Z,1020.99
2017-01-22T11:00:52.248Z,1020.99
2017-01-22T11:01:52.220Z,1021.02
2017-01-22T11:02:52.197Z,1021.04
2017-01-22T11:03:52.170Z,1021.02
2017-01-22T11:04:52.140Z,1020.99
2017-01-22T11:05:52.111Z,1021.04
2017-01-22T11:06:52.086Z,1021.05
2017-01-22T11:07:52.059Z,1021.01
2017-01-22T11:08:52.034Z,1021.01
2017-01-22T11:09:52.011Z,1021.02
2017-01-22T11:10:51.980Z,1020.98
2017-01-22T11:11:51.954Z,1021
2017-01-22T11:12:51.925Z,1021.02
2017-01-22T11:13:51.900Z,1021.01
2017-01-22T11:14:51.875Z,1021.02
2017-01-22T11:15:51.849Z,1020.98
2017-01-22T11:16:51.821Z,1020.99
2017-01-22T11:17:51.845Z,1020.99
2017-01-22T11:18:51.771Z,1020.94
2017-01-22T11:19:51.741Z,1020.98
2017-01-22T11:20:51.716Z,1020.96
2017-01-22T11:21:51.688Z,1020.96
2017-01-22T11:22:51.662Z,1020.98
2017-01-22T11:23:51.640Z,1020.95
2017-01-22T11:24:51.608Z,1020.92
2017-01-22T11:25:51.582Z,1020.91
2017-01-22T11:26:51.556Z,1020.92
2017-01-22T11:27:51.531Z,1020.91
2017-01-22T11:28:51.510Z,1020.86
2017-01-22T11:29:51.477Z,1020.92
2017-01-22T11:30:51.454Z,1020.91
2017-01-22T11:31:51.427Z,1020.9
2017-01-22T11:32:51.397Z,1020.89
2017-01-22T11:33:51.372Z,1020.88
2017-01-22T11:34:51.345Z,1020.87
2017-01-22T11:35:51.320Z,1020.8
2017-01-22T11:36:51.295Z,1020.8
2017-01-22T11:37:51.265Z,1020.77
2017-01-22T11:38:51.239Z,1020.78
2017-01-22T11:39:51.215Z,1020.77
2017-01-22T11:40:51.192Z,1020.82
2017-01-22T11:41:51.165Z,1020.81
2017-01-22T11:42:51.136Z,1020.76
2017-01-22T11:43:51.114Z,1020.75
2017-01-22T11:44:51.082Z,1020.75
2017-01-22T11:45:51.057Z,1020.71
2017-01-22T11:46:51.031Z,1020.75
2017-01-22T11:47:51.007Z,1020.72
2017-01-22T11:48:50.985Z,1020.66
2017-01-22T11:49:50.953Z,1020.7
2017-01-22T11:50:50.925Z,1020.66
2017-01-22T11:51:50.901Z,1020.67
2017-01-22T11:52:50.875Z,1020.65
2017-01-22T11:53:50.851Z,1020.63
2017-01-22T11:54:50.824Z,1020.61
2017-01-22T11:55:50.803Z,1020.63
2017-01-22T11:56:50.772Z,1020.58
2017-01-22T11:57:50.744Z,1020.55
2017-01-22T11:58:50.719Z,1020.53
2017-01-22T11:59:50.691Z,1020.54
2017-01-22T12:00:50.676Z,1020.5
2017-01-22T12:01:50.641Z,1020.51
2017-01-22T12:02:50.616Z,1020.47
2017-01-22T12:03:50.588Z,1020.45
2017-01-22T12:04:50.564Z,1020.4
2017-01-22T12:05:50.537Z,1020.35
2017-01-22T12:06:50.512Z,1020.38
2017-01-22T12:07:50.486Z,1020.36